createdAt,value
2022-10-13T00:01:54.058Z,99654.69
2022-10-13T00:06:56.331Z,99650.94
2022-10-13T00:12:05.923Z,99647.66
2022-10-13T00:17:10.852Z,99650.94
2022-10-13T00:22:13.055Z,99641.66
2022-10-13T00:27:16.345Z,99649.19
2022-10-13T00:32:18.806Z,99650.47
2022-10-13T00:37:23.427Z,99662.00
2022-10-13T00:42:28.486Z,99655.22
2022-10-13T00:47:33.725Z,99648.03
2022-10-13T00:52:39.730Z,99655.22
2022-10-13T00:57:44.280Z,99666.72
2022-10-13T01:02:46.442Z,99648.78
2022-10-13T01:07:49.963Z,99644.47
2022-10-13T01:12:58.259Z,99637.44
2022-10-13T01:18:12.562Z,99619.97
2022-10-13T01:23:33.367Z,99614.72
2022-10-13T01:28:41.874Z,99617.13
2022-10-13T01:33:48.801Z,99613.41
2022-10-13T01:39:07.863Z,99606.44
2022-10-13T01:44:16.389Z,99612.28
2022-10-13T01:49:35.992Z,99610.50
2022-10-13T01:54:40.396Z,99601.50
2022-10-13T01:59:42.569Z,99589.13
2022-10-13T02:04:49.145Z,99596.00
2022-10-13T02:09:57.394Z,99588.09
2022-10-13T02:15:01.170Z,99576.41
2022-10-13T02:20:05.980Z,99574.03
2022-10-13T02:25:10.560Z,99569.19
2022-10-13T02:30:20.250Z,99570.13
2022-10-13T02:35:22.715Z,99571.47
2022-10-13T02:40:25.173Z,99574.22
2022-10-13T02:45:27.666Z,99573.78
2022-10-13T02:50:30.308Z,99574.38
2022-10-13T02:55:34.863Z,99572.75
2022-10-13T03:00:39.814Z,99570.72
2022-10-13T03:05:42.090Z,99565.81
2022-10-13T03:10:44.301Z,99557.25
2022-10-13T03:15:50.364Z,99558.47
2022-10-13T03:20:56.866Z,99551.81
2022-10-13T03:26:03.182Z,99537.78
2022-10-13T03:31:07.366Z,99550.78
2022-10-13T03:36:11.020Z,99553.84
2022-10-13T03:41:19.172Z,99554.97
2022-10-13T03:46:26.745Z,99558.63
2022-10-13T03:51:36.171Z,99550.38
2022-10-13T03:56:41.346Z,99543.34
2022-10-13T04:01:43.617Z,99538.28
2022-10-13T04:06:48.221Z,99544.53
2022-10-13T04:11:53.266Z,99555.97
2022-10-13T04:16:57.751Z,99551.28
2022-10-13T04:22:01.874Z,99544.84
2022-10-13T04:27:04.131Z,99543.19
2022-10-13T04:32:06.289Z,99551.00
2022-10-13T04:37:08.540Z,99576.84
2022-10-13T04:42:10.763Z,99564.25
2022-10-13T04:47:13.342Z,99561.03
2022-10-13T04:52:15.541Z,99561.72
2022-10-13T04:57:19.896Z,99563.22
2022-10-13T05:02:26.343Z,99572.28
2022-10-13T05:07:28.949Z,99579.13
2022-10-13T05:12:31.214Z,99581.66
2022-10-13T05:17:35.814Z,99577.25
2022-10-13T05:22:43.804Z,99568.44
2022-10-13T05:27:55.612Z,99538.84
2022-10-13T05:32:58.351Z,99536.69
2022-10-13T05:38:01.233Z,99527.88
2022-10-13T05:43:04.109Z,99529.56
2022-10-13T05:48:08.761Z,99533.28
2022-10-13T05:53:11.037Z,99518.06
2022-10-13T05:58:17.357Z,99532.44
2022-10-13T06:03:25.226Z,99514.16
2022-10-13T06:08:27.527Z,99508.91
2022-10-13T06:13:29.851Z,99522.69
2022-10-13T06:18:33.932Z,99538.53
2022-10-13T06:23:44.292Z,99541.66
2022-10-13T06:28:59.132Z,99541.41
2022-10-13T06:34:02.884Z,99554.31
2022-10-13T06:39:09.239Z,99523.63
2022-10-13T06:44:14.822Z,99553.91
2022-10-13T06:49:17.509Z,99536.66
2022-10-13T06:54:21.906Z,99543.16
2022-10-13T06:59:26.498Z,99552.94
2022-10-13T07:04:29.425Z,99543.06
2022-10-13T07:09:33.135Z,99533.22
2022-10-13T07:14:43.715Z,99555.88
2022-10-13T07:19:48.707Z,99556.03
2022-10-13T07:24:50.950Z,99558.53
2022-10-13T07:29:55.008Z,99561.09
2022-10-13T07:34:57.292Z,99556.59
2022-10-13T07:40:00.527Z,99566.53
2022-10-13T07:45:04.657Z,99576.66
2022-10-13T07:50:07.212Z,99569.47
2022-10-13T07:55:09.792Z,99563.28
2022-10-13T08:00:21.536Z,99562.00
2022-10-13T08:05:23.906Z,99547.19
2022-10-13T08:10:26.398Z,99545.41
2022-10-13T08:15:28.689Z,99536.72
2022-10-13T08:20:40.990Z,99516.03
2022-10-13T08:25:44.159Z,99518.47
2022-10-13T08:30:46.900Z,99492.94
2022-10-13T08:35:49.354Z,99497.34
2022-10-13T08:40:53.272Z,99494.38
2022-10-13T08:45:59.866Z,99468.59
2022-10-13T08:51:07.101Z,99496.88
2022-10-13T08:56:23.706Z,99479.78
2022-10-13T09:01:37.594Z,99480.56
2022-10-13T09:06:44.315Z,99440.09
2022-10-13T09:11:49.245Z,99450.75
2022-10-13T09:16:52.638Z,99454.13
2022-10-13T09:21:56.313Z,99448.25
2022-10-13T09:27:06.936Z,99429.72
2022-10-13T09:32:16.968Z,99433.50
2022-10-13T09:37:23.883Z,99446.53
2022-10-13T09:42:29.664Z,99428.75
2022-10-13T09:47:36.650Z,99435.50
2022-10-13T09:52:41.144Z,99431.59
2022-10-13T09:57:50.142Z,99429.41
2022-10-13T10:03:02.182Z,99418.56
2022-10-13T10:08:38.855Z,99419.38
2022-10-13T10:13:52.828Z,99419.91
2022-10-13T10:18:59.042Z,99421.25
2022-10-13T10:24:10.423Z,99413.88
2022-10-13T10:29:17.486Z,99410.69
2022-10-13T10:34:36.868Z,99408.84
2022-10-13T10:39:45.026Z,99393.94
2022-10-13T10:44:49.225Z,99398.22
2022-10-13T10:49:54.932Z,99393.16
2022-10-13T10:55:05.492Z,99387.31
2022-10-13T11:00:15.368Z,99394.94
2022-10-13T11:05:17.755Z,99398.31
2022-10-13T11:10:21.580Z,99404.47
2022-10-13T11:15:31.184Z,99386.78
2022-10-13T11:20:36.459Z,99374.38
2022-10-13T11:25:40.112Z,99364.16
2022-10-13T11:30:59.891Z,99357.13
2022-10-13T11:36:23.790Z,99329.69
2022-10-13T11:41:32.275Z,99329.06
2022-10-13T11:46:44.987Z,99327.34
2022-10-13T11:57:27.424Z,99324.75
2022-10-13T12:07:47.797Z,99314.06
2022-10-13T12:12:52.583Z,99295.88
2022-10-13T12:17:55.306Z,99269.19
2022-10-13T12:22:59.884Z,99260.09
2022-10-13T12:28:02.419Z,99252.03
2022-10-13T12:33:17.806Z,99236.28
2022-10-13T12:38:20.932Z,99252.09
2022-10-13T12:43:25.470Z,99237.19
2022-10-13T12:48:35.016Z,99233.13
2022-10-13T12:53:38.199Z,99217.19
2022-10-13T12:58:46.095Z,99212.69
2022-10-13T13:03:56.711Z,99210.44
2022-10-13T13:09:13.829Z,99205.38
2022-10-13T13:14:31.124Z,99201.03
2022-10-13T13:24:51.298Z,99196.94
2022-10-13T13:29:54.695Z,99194.31
2022-10-13T13:35:01.114Z,99200.97
2022-10-13T13:40:03.974Z,99203.03
2022-10-13T13:45:06.919Z,99202.81
2022-10-13T13:50:22.406Z,99199.75
2022-10-13T13:55:31.414Z,99206.09
2022-10-13T14:00:36.313Z,99202.00
2022-10-13T14:05:39.266Z,99211.53
2022-10-13T14:10:43.208Z,99194.69
2022-10-13T14:15:45.478Z,99184.00
2022-10-13T14:26:09.640Z,99182.22
2022-10-13T14:31:14.192Z,99186.53
2022-10-13T14:36:17.659Z,99184.38
2022-10-13T14:41:19.923Z,99181.75
2022-10-13T14:46:24.615Z,99181.53
2022-10-13T14:51:26.824Z,99181.88
2022-10-13T14:56:32.437Z,99172.56
2022-10-13T15:01:36.218Z,99175.13
2022-10-13T15:06:41.600Z,99177.84
2022-10-13T15:11:46.251Z,99166.59
2022-10-13T15:16:48.387Z,99159.78
2022-10-13T15:21:57.667Z,99160.50
2022-10-13T15:27:00.401Z,99170.78
2022-10-13T15:32:16.363Z,99171.28
2022-10-13T15:37:19.867Z,99170.03
2022-10-13T15:42:22.522Z,99168.91
2022-10-13T15:47:24.849Z,99176.22
2022-10-13T15:52:34.979Z,99171.09
2022-10-13T16:02:53.885Z,99157.00
2022-10-13T16:07:56.225Z,99166.50
2022-10-13T16:12:58.674Z,99149.47
2022-10-13T16:23:19.124Z,99160.16
2022-10-13T16:28:21.305Z,99156.31
2022-10-13T16:33:24.016Z,99158.28
2022-10-13T16:38:26.887Z,99154.38
2022-10-13T16:43:29.906Z,99154.06
2022-10-13T16:48:39.780Z,99151.72
2022-10-13T16:53:42.067Z,99134.13
2022-10-13T16:58:45.385Z,99128.88
2022-10-13T17:03:48.214Z,99140.06
2022-10-13T17:08:52.769Z,99146.81
2022-10-13T17:13:56.101Z,99135.94
2022-10-13T17:19:01.535Z,99143.88
2022-10-13T17:24:11.504Z,99148.00
2022-10-13T17:34:39.137Z,99139.47
2022-10-13T17:39:41.369Z,99148.38
2022-10-13T17:44:47.882Z,99148.84
2022-10-13T17:49:50.179Z,99157.63
2022-10-13T17:55:00.008Z,99161.38
2022-10-13T18:00:04.715Z,99152.56
2022-10-13T18:05:14.578Z,99153.28
2022-10-13T18:10:17.985Z,99158.31
2022-10-13T18:15:22.494Z,99161.88
2022-10-13T18:20:36.672Z,99167.28
2022-10-13T18:25:41.051Z,99170.31
2022-10-13T18:30:50.573Z,99184.34
2022-10-13T18:35:52.859Z,99178.78
2022-10-13T18:40:59.154Z,99174.84
2022-10-13T18:46:02.338Z,99176.50
2022-10-13T18:51:04.612Z,99159.25
2022-10-13T18:56:08.585Z,99142.19
2022-10-13T19:01:12.694Z,99162.25
2022-10-13T19:06:15.835Z,99155.53
2022-10-13T19:11:21.732Z,99145.38
2022-10-13T19:16:26.914Z,99131.97
2022-10-13T19:21:40.055Z,99132.50
2022-10-13T19:26:51.486Z,99121.44
2022-10-13T19:31:58.497Z,99119.56
2022-10-13T19:37:10.761Z,99122.63
2022-10-13T19:42:13.076Z,99120.25
2022-10-13T19:47:15.225Z,99125.66
2022-10-13T19:52:17.376Z,99130.03
2022-10-13T19:57:20.760Z,99146.81
2022-10-13T20:02:23.547Z,99152.53
2022-10-13T20:07:25.794Z,99143.94
2022-10-13T20:12:27.991Z,99151.44
2022-10-13T20:17:30.217Z,99129.78
2022-10-13T20:22:32.639Z,99126.31
2022-10-13T20:27:37.835Z,99122.25
2022-10-13T20:32:40.152Z,99128.50
2022-10-13T20:37:42.332Z,99145.72
2022-10-13T20:42:48.928Z,99140.75
2022-10-13T20:47:52.458Z,99156.69
2022-10-13T20:52:54.692Z,99167.00
2022-10-13T20:57:56.893Z,99174.91
2022-10-13T21:03:02.091Z,99173.72
2022-10-13T21:08:09.546Z,99187.91
2022-10-13T21:13:20.672Z,99201.25
2022-10-13T21:18:22.987Z,99201.91
2022-10-13T21:23:27.372Z,99212.38
2022-10-13T21:28:30.561Z,99196.34
2022-10-13T21:33:35.585Z,99207.66
2022-10-13T21:38:39.607Z,99204.88
2022-10-13T21:43:42.144Z,99215.34
2022-10-13T21:48:45.281Z,99217.53
2022-10-13T21:54:05.974Z,99214.09
2022-10-13T21:59:08.887Z,99242.59
2022-10-13T22:04:13.125Z,99242.09
2022-10-13T22:14:42.961Z,99244.63
2022-10-13T22:19:52.584Z,99234.50
2022-10-13T22:24:54.736Z,99267.25
2022-10-13T22:29:59.468Z,99255.78
2022-10-13T22:35:01.774Z,99249.69
2022-10-13T22:40:13.740Z,99236.34
2022-10-13T22:45:15.902Z,99223.50
2022-10-13T22:50:22.226Z,99228.84
2022-10-13T22:55:24.511Z,99229.78
2022-10-13T23:00:26.649Z,99219.81
2022-10-13T23:05:31.117Z,99220.16
2022-10-13T23:10:33.378Z,99228.41
2022-10-13T23:15:37.631Z,99226.06
2022-10-13T23:20:42.813Z,99221.31
2022-10-13T23:25:47.441Z,99220.03
2022-10-13T23:30:49.637Z,99211.69
2022-10-13T23:36:19.296Z,99207.94
2022-10-13T23:41:27.514Z,99203.66
2022-10-13T23:46:29.825Z,99223.13
2022-10-13T23:51:32.150Z,99235.94
2022-10-13T23:56:34.788Z,99250.03
